sensor_id;sensor_type;location;lat;lon;timestamp;pressure;altitude;pressure_sealevel;temperature;humidity
18014;BME280;9132;47.946;10.394;2024-03-02T00:00:26;92955.53;;;4.67;100.00
18014;BME280;9132;47.946;10.394;2024-03-02T00:02:52;92956.13;;;4.69;100.00
18014;BME280;9132;47.946;10.394;2024-03-02T00:05:22;92955.97;;;4.70;100.00
18014;BME280;9132;47.946;10.394;2024-03-02T00:07:53;92949.09;;;4.69;100.00
18014;BME280;9132;47.946;10.394;2024-03-02T00:10:24;92957.56;;;4.71;100.00
18014;BME280;9132;47.946;10.394;2024-03-02T00:12:54;92947.13;;;4.71;100.00
18014;BME280;9132;47.946;10.394;2024-03-02T00:15:41;92946.69;;;4.68;100.00
18014;BME280;9132;47.946;10.394;2024-03-02T00:18:10;92961.78;;;4.72;100.00
18014;BME280;9132;47.946;10.394;2024-03-02T00:20:38;92960.19;;;4.71;100.00
18014;BME280;9132;47.946;10.394;2024-03-02T00:23:06;92955.97;;;4.70;100.00
18014;BME280;9132;47.946;10.394;2024-03-02T00:25:38;92943.81;;;4.62;100.00
18014;BME280;9132;47.946;10.394;2024-03-02T00:28:12;92957.13;;;4.68;100.00
18014;BME280;9132;47.946;10.394;2024-03-02T00:30:51;92953.53;;;4.69;100.00
18014;BME280;9132;47.946;10.394;2024-03-02T00:33:19;92952.50;;;4.70;100.00
18014;BME280;9132;47.946;10.394;2024-03-02T00:35:47;92946.25;;;4.64;100.00
18014;BME280;9132;47.946;10.394;2024-03-02T00:38:14;92947.50;;;4.68;100.00
18014;BME280;9132;47.946;10.394;2024-03-02T00:40:41;92941.84;;;4.64;100.00
18014;BME280;9132;47.946;10.394;2024-03-02T00:43:17;92936.41;;;4.66;100.00
18014;BME280;9132;47.946;10.394;2024-03-02T00:45:47;92953.53;;;4.69;100.00
18014;BME280;9132;47.946;10.394;2024-03-02T00:48:15;92949.69;;;4.64;100.00
18014;BME280;9132;47.946;10.394;2024-03-02T00:50:42;92938.84;;;4.68;100.00
18014;BME280;9132;47.946;10.394;2024-03-02T00:53:10;92948.28;;;4.69;100.00
18014;BME280;9132;47.946;10.394;2024-03-02T00:55:38;92950.09;;;4.68;100.00
18014;BME280;9132;47.946;10.394;2024-03-02T00:58:09;92947.50;;;4.68;100.00
18014;BME280;9132;47.946;10.394;2024-03-02T01:00:35;92940.66;;;4.67;100.00
18014;BME280;9132;47.946;10.394;2024-03-02T01:03:02;92951.09;;;4.67;100.00
18014;BME280;9132;47.946;10.394;2024-03-02T01:05:29;92931.75;;;4.61;100.00
18014;BME280;9132;47.946;10.394;2024-03-02T01:07:56;92949.69;;;4.64;100.00
18014;BME280;9132;47.946;10.394;2024-03-02T01:10:23;92942.84;;;4.63;100.00
18014;BME280;9132;47.946;10.394;2024-03-02T01:12:51;92950.69;;;4.63;100.00
18014;BME280;9132;47.946;10.394;2024-03-02T01:15:17;92950.03;;;4.61;100.00
18014;BME280;9132;47.946;10.394;2024-03-02T01:17:44;92950.03;;;4.61;100.00
18014;BME280;9132;47.946;10.394;2024-03-02T01:20:11;92944.81;;;4.61;100.00
18014;BME280;9132;47.946;10.394;2024-03-02T01:22:37;92949.69;;;4.64;100.00
18014;BME280;9132;47.946;10.394;2024-03-02T01:25:05;92944.63;;;4.63;100.00
18014;BME280;9132;47.946;10.394;2024-03-02T01:27:33;92938.44;;;4.64;100.00
18014;BME280;9132;47.946;10.394;2024-03-02T01:29:59;92948.66;;;4.65;100.00
18014;BME280;9132;47.946;10.394;2024-03-02T01:32:26;92947.06;;;4.64;100.00
18014;BME280;9132;47.946;10.394;2024-03-02T01:34:52;92937.34;;;4.58;100.00
18014;BME280;9132;47.946;10.394;2024-03-02T01:37:19;92951.28;;;4.65;100.00
18014;BME280;9132;47.946;10.394;2024-03-02T01:39:45;92937.63;;;4.63;100.00
18014;BME280;9132;47.946;10.394;2024-03-02T01:42:12;92938.44;;;4.64;100.00
18014;BME280;9132;47.946;10.394;2024-03-02T01:44:40;92941.25;;;4.69;100.00
18014;BME280;9132;47.946;10.394;2024-03-02T01:47:06;92941.88;;;4.71;100.00
18014;BME280;9132;47.946;10.394;2024-03-02T01:49:33;92939.28;;;4.71;100.00
18014;BME280;9132;47.946;10.394;2024-03-02T01:52:00;92943.50;;;4.72;100.00
18014;BME280;9132;47.946;10.394;2024-03-02T01:54:26;92941.09;;;4.71;100.00
18014;BME280;9132;47.946;10.394;2024-03-02T01:56:53;92934.06;;;4.71;100.00
18014;BME280;9132;47.946;10.394;2024-03-02T01:59:19;92937.69;;;4.70;100.00
18014;BME280;9132;47.946;10.394;2024-03-02T02:01:47;92934.22;;;4.70;100.00
18014;BME280;9132;47.946;10.394;2024-03-02T02:04:14;92933.19;;;4.64;100.00
18014;BME280;9132;47.946;10.394;2024-03-02T02:06:40;92937.25;;;4.67;100.00
18014;BME280;9132;47.946;10.394;2024-03-02T02:09:07;92928.78;;;4.64;100.00
18014;BME280;9132;47.946;10.394;2024-03-02T02:11:34;92936.03;;;4.69;100.00
18014;BME280;9132;47.946;10.394;2024-03-02T02:14:00;92934.44;;;4.68;100.00
18014;BME280;9132;47.946;10.394;2024-03-02T02:16:27;92924.34;;;4.65;100.00
18014;BME280;9132;47.946;10.394;2024-03-02T02:18:55;92934.22;;;4.70;100.00
18014;BME280;9132;47.946;10.394;2024-03-02T02:21:23;92928.03;;;4.71;100.00
18014;BME280;9132;47.946;10.394;2024-03-02T02:23:49;92933.44;;;4.69;100.00
18014;BME280;9132;47.946;10.394;2024-03-02T02:26:16;92924.19;;;4.67;100.00
18014;BME280;9132;47.946;10.394;2024-03-02T02:28:42;92929.00;;;4.70;100.00
18014;BME280;9132;47.946;10.394;2024-03-02T02:31:12;92933.63;;;4.68;100.00
18014;BME280;9132;47.946;10.394;2024-03-02T02:33:39;92925.97;;;4.66;100.00
18014;BME280;9132;47.946;10.394;2024-03-02T02:36:05;92932.63;;;4.69;100.00
18014;BME280;9132;47.946;10.394;2024-03-02T02:38:37;92924.19;;;4.67;100.00
18014;BME280;9132;47.946;10.394;2024-03-02T02:41:04;92934.44;;;4.68;100.00
18014;BME280;9132;47.946;10.394;2024-03-02T02:43:31;92925.38;;;4.64;100.00
18014;BME280;9132;47.946;10.394;2024-03-02T02:45:57;92918.56;;;4.70;100.00
18014;BME280;9132;47.946;10.394;2024-03-02T02:48:24;92926.22;;;4.71;100.00
18014;BME280;9132;47.946;10.394;2024-03-02T02:50:50;92920.56;;;4.68;100.00
18014;BME280;9132;47.946;10.394;2024-03-02T02:53:17;92925.41;;;4.71;100.00
18014;BME280;9132;47.946;10.394;2024-03-02T02:55:45;92932.06;;;4.73;100.00
18014;BME280;9132;47.946;10.394;2024-03-02T02:58:12;92928.63;;;4.73;100.00
18014;BME280;9132;47.946;10.394;2024-03-02T03:00:40;92927.81;;;4.72;100.00
18014;BME280;9132;47.946;10.394;2024-03-02T03:03:06;92926.00;;;4.73;100.00
18014;BME280;9132;47.946;10.394;2024-03-02T03:05:33;92939.06;;;4.73;100.00
18014;BME280;9132;47.946;10.394;2024-03-02T03:07:59;92943.69;;;4.71;100.00
18014;BME280;9132;47.946;10.394;2024-03-02T03:10:25;92938.66;;;4.69;100.00
18014;BME280;9132;47.946;10.394;2024-03-02T03:12:54;92949.41;;;4.59;100.00
18014;BME280;9132;47.946;10.394;2024-03-02T03:15:21;92953.41;;;4.55;100.00
18014;BME280;9132;47.946;10.394;2024-03-02T03:17:48;92967.56;;;4.46;100.00
18014;BME280;9132;47.946;10.394;2024-03-02T03:20:14;92971.19;;;4.45;100.00
18014;BME280;9132;47.946;10.394;2024-03-02T03:22:42;92968.16;;;4.41;100.00
18014;BME280;9132;47.946;10.394;2024-03-02T03:25:08;92973.16;;;4.43;100.00
18014;BME280;9132;47.946;10.394;2024-03-02T03:27:35;92969.56;;;4.44;100.00
18014;BME280;9132;47.946;10.394;2024-03-02T03:30:03;92969.31;;;4.39;100.00
18014;BME280;9132;47.946;10.394;2024-03-02T03:32:31;92978.81;;;4.47;100.00
18014;BME280;9132;47.946;10.394;2024-03-02T03:34:57;92975.03;;;4.49;100.00
18014;BME280;9132;47.946;10.394;2024-03-02T03:37:24;92986.56;;;4.55;100.00
18014;BME280;9132;47.946;10.394;2024-03-02T03:39:52;92976.47;;;4.52;100.00
18014;BME280;9132;47.946;10.394;2024-03-02T03:42:18;92983.38;;;4.59;100.00
18014;BME280;9132;47.946;10.394;2024-03-02T03:44:45;92982.41;;;4.60;100.00
18014;BME280;9132;47.946;10.394;2024-03-02T03:47:12;92979.59;;;4.62;100.00
18014;BME280;9132;47.946;10.394;2024-03-02T03:49:39;92987.63;;;4.60;100.00
18014;BME280;9132;47.946;10.394;2024-03-02T03:52:05;92985.63;;;4.62;100.00
18014;BME280;9132;47.946;10.394;2024-03-02T03:54:32;92988.84;;;4.64;100.00
18014;BME280;9132;47.946;10.394;2024-03-02T03:56:58;92987.69;;;4.67;100.00
18014;BME280;9132;47.946;10.394;2024-03-02T03:59:25;92988.50;;;4.68;100.00
18014;BME280;9132;47.946;10.394;2024-03-02T04:01:51;92988.50;;;4.68;100.00
18014;BME280;9132;47.946;10.394;2024-03-02T04:04:20;92991.91;;;4.68;100.00
18014;BME280;9132;47.946;10.394;2024-03-02T04:06:46;92990.09;;;4.69;100.00
18014;BME280;9132;47.946;10.394;2024-03-02T04:09:13;92989.28;;;4.68;100.00
18014;BME280;9132;47.946;10.394;2024-03-02T04:11:39;92990.28;;;4.67;100.00
18014;BME280;9132;47.946;10.394;2024-03-02T04:14:06;92976.81;;;4.63;100.00
18014;BME280;9132;47.946;10.394;2024-03-02T04:16:32;92994.44;;;4.61;100.00
18014;BME280;9132;47.946;10.394;2024-03-02T04:18:59;92994.63;;;4.60;100.00
18014;BME280;9132;47.946;10.394;2024-03-02T04:21:26;92986.63;;;4.61;100.00
18014;BME280;9132;47.946;10.394;2024-03-02T04:23:52;92989.88;;;4.63;100.00
18014;BME280;9132;47.946;10.394;2024-03-02T04:26:22;92990.47;;;4.65;100.00
18014;BME280;9132;47.946;10.394;2024-03-02T04:28:49;92987.84;;;4.65;100.00
18014;BME280;9132;47.946;10.394;2024-03-02T04:31:15;92992.69;;;4.69;100.00
18014;BME280;9132;47.946;10.394;2024-03-02T04:33:42;92994.31;;;4.70;100.00
18014;BME280;9132;47.946;10.394;2024-03-02T04:36:08;92984.50;;;4.72;100.00
18014;BME280;9132;47.946;10.394;2024-03-02T04:38:37;92991.16;;;4.74;100.00
18014;BME280;9132;47.946;10.394;2024-03-02T04:41:04;92991.97;;;4.75;100.00
18014;BME280;9132;47.946;10.394;2024-03-02T04:43:32;92990.34;;;4.74;100.00
18014;BME280;9132;47.946;10.394;2024-03-02T04:45:58;92997.38;;;4.73;100.00
18014;BME280;9132;47.946;10.394;2024-03-02T04:48:25;92981.25;;;4.70;100.00
18014;BME280;9132;47.946;10.394;2024-03-02T04:50:51;92990.47;;;4.65;100.00
18014;BME280;9132;47.946;10.394;2024-03-02T04:53:18;92984.81;;;4.62;100.00
18014;BME280;9132;47.946;10.394;2024-03-02T04:55:46;92988.59;;;4.59;100.00
18014;BME280;9132;47.946;10.394;2024-03-02T04:58:44;92992.38;;;4.57;100.00
18014;BME280;9132;47.946;10.394;2024-03-02T05:01:10;92989.16;;;4.55;100.00
18014;BME280;9132;47.946;10.394;2024-03-02T05:03:37;92991.94;;;4.53;100.00
18014;BME280;9132;47.946;10.394;2024-03-02T05:06:04;92998.34;;;4.51;100.00
18014;BME280;9132;47.946;10.394;2024-03-02T05:08:30;93001.34;;;4.48;100.00
18014;BME280;9132;47.946;10.394;2024-03-02T05:10:58;92997.91;;;4.47;100.00
18014;BME280;9132;47.946;10.394;2024-03-02T05:13:45;92993.53;;;4.48;100.00
18014;BME280;9132;47.946;10.394;2024-03-02T05:16:10;92984.84;;;4.47;100.00
18014;BME280;9132;47.946;10.394;2024-03-02T05:18:37;92978.75;;;4.40;100.00
18014;BME280;9132;47.946;10.394;2024-03-02T05:21:04;92986.22;;;4.43;100.00
18014;BME280;9132;47.946;10.394;2024-03-02T05:23:30;92986.44;;;4.41;100.00
18014;BME280;9132;47.946;10.394;2024-03-02T05:25:58;92975.50;;;4.38;100.00
18014;BME280;9132;47.946;10.394;2024-03-02T05:28:25;92984.56;;;4.35;100.00
18014;BME280;9132;47.946;10.394;2024-03-02T05:30:51;92985.34;;;4.36;100.00
18014;BME280;9132;47.946;10.394;2024-03-02T05:33:18;92985.53;;;4.34;100.00
18014;BME280;9132;47.946;10.394;2024-03-02T05:35:47;92980.50;;;4.33;100.00
18014;BME280;9132;47.946;10.394;2024-03-02T05:38:15;92980.88;;;4.30;100.00
18014;BME280;9132;47.946;10.394;2024-03-02T05:40:41;92988.25;;;4.26;100.00
18014;BME280;9132;47.946;10.394;2024-03-02T05:43:09;92991.69;;;4.27;100.00
18014;BME280;9132;47.946;10.394;2024-03-02T05:45:36;92996.25;;;4.25;100.00
18014;BME280;9132;47.946;10.394;2024-03-02T05:48:02;92997.69;;;4.27;100.00
18014;BME280;9132;47.946;10.394;2024-03-02T05:50:29;92996.91;;;4.27;100.00
18014;BME280;9132;47.946;10.394;2024-03-02T05:52:55;92998.72;;;4.26;100.00
18014;BME280;9132;47.946;10.394;2024-03-02T05:55:22;92999.31;;;4.28;100.00
18014;BME280;9132;47.946;10.394;2024-03-02T05:57:48;92996.69;;;4.28;100.00
18014;BME280;9132;47.946;10.394;2024-03-02T06:00:29;92997.53;;;4.29;100.00
18014;BME280;9132;47.946;10.394;2024-03-02T06:02:56;92996.34;;;4.31;100.00
18014;BME280;9132;47.946;10.394;2024-03-02T06:05:23;92990.13;;;4.32;100.00
18014;BME280;9132;47.946;10.394;2024-03-02T06:07:50;92992.56;;;4.34;100.00
18014;BME280;9132;47.946;10.394;2024-03-02T06:10:16;92989.56;;;4.37;100.00
18014;BME280;9132;47.946;10.394;2024-03-02T06:12:43;92997.25;;;4.38;100.00
18014;BME280;9132;47.946;10.394;2024-03-02T06:15:09;92989.22;;;4.40;100.00
18014;BME280;9132;47.946;10.394;2024-03-02T06:17:37;92992.88;;;4.46;100.00
18014;BME280;9132;47.946;10.394;2024-03-02T06:20:05;92999.34;;;4.50;100.00
18014;BME280;9132;47.946;10.394;2024-03-02T06:22:33;92992.75;;;4.54;100.00
18014;BME280;9132;47.946;10.394;2024-03-02T06:25:00;93002.22;;;4.55;100.00
18014;BME280;9132;47.946;10.394;2024-03-02T06:27:26;93002.47;;;4.60;100.00
18014;BME280;9132;47.946;10.394;2024-03-02T06:29:53;93000.47;;;4.62;100.00
18014;BME280;9132;47.946;10.394;2024-03-02T06:32:20;93006.13;;;4.65;100.00
18014;BME280;9132;47.946;10.394;2024-03-02T06:34:47;93005.16;;;4.67;100.00
18014;BME280;9132;47.946;10.394;2024-03-02T06:37:14;93005.97;;;4.67;100.00
18014;BME280;9132;47.946;10.394;2024-03-02T06:39:41;93006.56;;;4.69;100.00
18014;BME280;9132;47.946;10.394;2024-03-02T06:42:07;93008.22;;;4.70;100.00
18014;BME280;9132;47.946;10.394;2024-03-02T06:44:34;93004.03;;;4.76;100.00
18014;BME280;9132;47.946;10.394;2024-03-02T06:47:00;93004.28;;;4.81;100.00
18014;BME280;9132;47.946;10.394;2024-03-02T06:49:27;93010.94;;;4.83;100.00
18014;BME280;9132;47.946;10.394;2024-03-02T06:51:55;93011.38;;;4.87;100.00
18014;BME280;9132;47.946;10.394;2024-03-02T06:54:21;93012.59;;;4.91;100.00
18014;BME280;9132;47.946;10.394;2024-03-02T06:56:48;93007.00;;;4.94;100.00
18014;BME280;9132;47.946;10.394;2024-03-02T06:59:14;93004.81;;;4.98;100.00
18014;BME280;9132;47.946;10.394;2024-03-02T07:01:41;93003.47;;;5.02;100.00
18014;BME280;9132;47.946;10.394;2024-03-02T07:04:08;93014.34;;;5.05;100.00
18014;BME280;9132;47.946;10.394;2024-03-02T07:06:35;93002.22;;;4.98;100.00
18014;BME280;9132;47.946;10.394;2024-03-02T07:09:03;93011.00;;;5.11;100.00
18014;BME280;9132;47.946;10.394;2024-03-02T07:11:30;93014.19;;;5.14;100.00
18014;BME280;9132;47.946;10.394;2024-03-02T07:13:56;93021.50;;;5.18;100.00
18014;BME280;9132;47.946;10.394;2024-03-02T07:16:23;93016.53;;;5.23;100.00
18014;BME280;9132;47.946;10.394;2024-03-02T07:18:54;93004.69;;;5.27;100.00
18014;BME280;9132;47.946;10.394;2024-03-02T07:21:21;93008.53;;;5.31;100.00
18014;BME280;9132;47.946;10.394;2024-03-02T07:23:48;93008.41;;;5.40;100.00
18014;BME280;9132;47.946;10.394;2024-03-02T07:26:16;93001.16;;;5.42;100.00
18014;BME280;9132;47.946;10.394;2024-03-02T07:28:44;93011.91;;;5.53;100.00
18014;BME280;9132;47.946;10.394;2024-03-02T07:31:11;93014.13;;;5.56;100.00
18014;BME280;9132;47.946;10.394;2024-03-02T07:33:38;93011.19;;;5.66;100.00
18014;BME280;9132;47.946;10.394;2024-03-02T07:36:05;93015.66;;;5.72;100.00
18014;BME280;9132;47.946;10.394;2024-03-02T07:38:30;93016.69;;;5.78;100.00
18014;BME280;9132;47.946;10.394;2024-03-02T07:40:58;93012.91;;;5.87;100.00
18014;BME280;9132;47.946;10.394;2024-03-02T07:43:26;93012.78;;;5.95;100.00
18014;BME280;9132;47.946;10.394;2024-03-02T07:45:53;93017.25;;;6.01;100.00
18014;BME280;9132;47.946;10.394;2024-03-02T07:48:20;93009.22;;;6.10;100.00
18014;BME280;9132;47.946;10.394;2024-03-02T07:50:47;93008.25;;;6.17;100.00
18014;BME280;9132;47.946;10.394;2024-03-02T07:53:13;93016.13;;;6.24;100.00
18014;BME280;9132;47.946;10.394;2024-03-02T07:55:40;93015.34;;;6.30;100.00
18014;BME280;9132;47.946;10.394;2024-03-02T07:58:07;93015.81;;;6.40;100.00
18014;BME280;9132;47.946;10.394;2024-03-02T08:00:34;93017.81;;;6.45;100.00
18014;BME280;9132;47.946;10.394;2024-03-02T08:03:01;93012.22;;;6.55;100.00
18014;BME280;9132;47.946;10.394;2024-03-02T08:05:28;93011.03;;;6.64;100.00
18014;BME280;9132;47.946;10.394;2024-03-02T08:07:55;93004.59;;;6.73;100.00
18014;BME280;9132;47.946;10.394;2024-03-02T08:10:21;93008.03;;;6.80;100.00
18014;BME280;9132;47.946;10.394;2024-03-02T08:12:48;93007.06;;;6.88;100.00
18014;BME280;9132;47.946;10.394;2024-03-02T08:15:14;93010.28;;;6.96;100.00
18014;BME280;9132;47.946;10.394;2024-03-02T08:17:42;93008.09;;;7.07;100.00
18014;BME280;9132;47.946;10.394;2024-03-02T08:20:13;93014.75;;;7.16;100.00
18014;BME280;9132;47.946;10.394;2024-03-02T08:22:40;93000.63;;;7.30;100.00
18014;BME280;9132;47.946;10.394;2024-03-02T08:25:07;93001.84;;;7.48;100.00
18014;BME280;9132;47.946;10.394;2024-03-02T08:27:35;93002.44;;;7.63;100.00
18014;BME280;9132;47.946;10.394;2024-03-02T08:30:01;93010.72;;;7.73;100.00
18014;BME280;9132;47.946;10.394;2024-03-02T08:32:31;93006.03;;;7.88;100.00
18014;BME280;9132;47.946;10.394;2024-03-02T08:34:59;93007.44;;;7.98;100.00
18014;BME280;9132;47.946;10.394;2024-03-02T08:37:25;93002.72;;;8.13;100.00
18014;BME280;9132;47.946;10.394;2024-03-02T08:39:52;93003.91;;;8.24;100.00
18014;BME280;9132;47.946;10.394;2024-03-02T08:42:18;93004.50;;;8.39;100.00
18014;BME280;9132;47.946;10.394;2024-03-02T08:44:45;93007.66;;;8.48;100.00
18014;BME280;9132;47.946;10.394;2024-03-02T08:47:11;93006.41;;;8.57;100.00
18014;BME280;9132;47.946;10.394;2024-03-02T08:49:38;93008.41;;;8.68;100.00
18014;BME280;9132;47.946;10.394;2024-03-02T08:52:06;92998.66;;;8.75;100.00
18014;BME280;9132;47.946;10.394;2024-03-02T08:54:33;93002.88;;;8.83;100.00
18014;BME280;9132;47.946;10.394;2024-03-02T08:57:00;93001.38;;;8.94;100.00
18014;BME280;9132;47.946;10.394;2024-03-02T08:59:27;92991.03;;;8.99;100.00
18014;BME280;9132;47.946;10.394;2024-03-02T09:01:54;92997.81;;;9.13;100.00
18014;BME280;9132;47.946;10.394;2024-03-02T09:04:20;92993.34;;;9.14;100.00
18014;BME280;9132;47.946;10.394;2024-03-02T09:06:47;92996.97;;;9.19;100.00
18014;BME280;9132;47.946;10.394;2024-03-02T09:09:14;92993.53;;;9.19;100.00
18014;BME280;9132;47.946;10.394;2024-03-02T09:11:41;92988.44;;;9.24;100.00
18014;BME280;9132;47.946;10.394;2024-03-02T09:14:07;93000.75;;;9.23;100.00
18014;BME280;9132;47.946;10.394;2024-03-02T09:16:34;92997.09;;;9.31;100.00
18014;BME280;9132;47.946;10.394;2024-03-02T09:19:00;93000.75;;;9.30;100.00
18014;BME280;9132;47.946;10.394;2024-03-02T09:21:27;93000.09;;;9.35;100.00
18014;BME280;9132;47.946;10.394;2024-03-02T09:23:55;93000.84;;;9.42;100.00
18014;BME280;9132;47.946;10.394;2024-03-02T09:26:23;92997.81;;;9.38;100.00
18014;BME280;9132;47.946;10.394;2024-03-02T09:28:50;92999.97;;;9.48;100.00
18014;BME280;9132;47.946;10.394;2024-03-02T09:31:16;93001.75;;;9.54;100.00
18014;BME280;9132;47.946;10.394;2024-03-02T09:33:43;93001.31;;;9.57;100.00
18014;BME280;9132;47.946;10.394;2024-03-02T09:36:17;92995.09;;;9.51;100.00
18014;BME280;9132;47.946;10.394;2024-03-02T09:38:44;92983.75;;;9.51;100.00
18014;BME280;9132;47.946;10.394;2024-03-02T09:41:10;92988.31;;;9.62;100.00
18014;BME280;9132;47.946;10.394;2024-03-02T09:43:38;92987.03;;;9.71;100.00
18014;BME280;9132;47.946;10.394;2024-03-02T09:46:06;92976.94;;;9.68;100.00
18014;BME280;9132;47.946;10.394;2024-03-02T09:48:32;92975.22;;;9.74;100.00
18014;BME280;9132;47.946;10.394;2024-03-02T09:51:00;92977.00;;;9.80;100.00
18014;BME280;9132;47.946;10.394;2024-03-02T09:53:31;92971.81;;;9.92;100.00
18014;BME280;9132;47.946;10.394;2024-03-02T09:55:58;92977.81;;;9.99;100.00
18014;BME280;9132;47.946;10.394;2024-03-02T09:58:25;92966.47;;;9.98;100.00
18014;BME280;9132;47.946;10.394;2024-03-02T10:00:53;92975.19;;;9.99;100.00
18014;BME280;9132;47.946;10.394;2024-03-02T10:03:19;92970.06;;;10.04;100.00
18014;BME280;9132;47.946;10.394;2024-03-02T10:05:46;92970.44;;;10.08;100.00
18014;BME280;9132;47.946;10.394;2024-03-02T10:08:13;92968.16;;;10.11;100.00
18014;BME280;9132;47.946;10.394;2024-03-02T10:10:41;92961.22;;;10.17;100.00
18014;BME280;9132;47.946;10.394;2024-03-02T10:13:09;92965.78;;;10.28;100.00
18014;BME280;9132;47.946;10.394;2024-03-02T10:15:37;92966.06;;;10.38;100.00
18014;BME280;9132;47.946;10.394;2024-03-02T10:18:08;92959.03;;;10.51;100.00
18014;BME280;9132;47.946;10.394;2024-03-02T10:20:36;92954.09;;;10.54;100.00
18014;BME280;9132;47.946;10.394;2024-03-02T10:23:13;92955.34;;;10.52;100.00
18014;BME280;9132;47.946;10.394;2024-03-02T10:25:40;92944.25;;;10.61;100.00
18014;BME280;9132;47.946;10.394;2024-03-02T10:28:07;92950.25;;;10.68;100.00
18014;BME280;9132;47.946;10.394;2024-03-02T10:30:33;92941.00;;;10.78;100.00
18014;BME280;9132;47.946;10.394;2024-03-02T10:33:00;92938.50;;;10.83;100.00
18014;BME280;9132;47.946;10.394;2024-03-02T10:35:28;92934.63;;;10.85;100.00
18014;BME280;9132;47.946;10.394;2024-03-02T10:37:58;92933.47;;;10.93;100.00
18014;BME280;9132;47.946;10.394;2024-03-02T10:40:26;92917.09;;;11.03;100.00
18014;BME280;9132;47.946;10.394;2024-03-02T10:42:53;92921.25;;;11.10;100.00
18014;BME280;9132;47.946;10.394;2024-03-02T10:45:20;92913.09;;;11.12;100.00
18014;BME280;9132;47.946;10.394;2024-03-02T10:47:48;92915.63;;;11.19;100.00
18014;BME280;9132;47.946;10.394;2024-03-02T10:50:14;92906.78;;;11.25;100.00
18014;BME280;9132;47.946;10.394;2024-03-02T10:52:42;92906.34;;;11.28;100.00
18014;BME280;9132;47.946;10.394;2024-03-02T10:55:09;92908.66;;;11.36;100.00
18014;BME280;9132;47.946;10.394;2024-03-02T10:57:41;92907.16;;;11.40;100.00
18014;BME280;9132;47.946;10.394;2024-03-02T11:00:11;92898.44;;;11.40;100.00
18014;BME280;9132;47.946;10.394;2024-03-02T11:02:42;92893.16;;;11.51;100.00
18014;BME280;9132;47.946;10.394;2024-03-02T11:05:18;92884.53;;;11.56;100.00
18014;BME280;9132;47.946;10.394;2024-03-02T11:07:53;92892.13;;;11.76;100.00
18014;BME280;9132;47.946;10.394;2024-03-02T11:10:23;92900.03;;;11.88;100.00
18014;BME280;9132;47.946;10.394;2024-03-02T11:12:54;92885.31;;;11.80;100.00
18014;BME280;9132;47.946;10.394;2024-03-02T11:15:24;92883.97;;;11.89;100.00
18014;BME280;9132;47.946;10.394;2024-03-02T11:17:52;92879.69;;;11.88;100.00
18014;BME280;9132;47.946;10.394;2024-03-02T11:20:20;92877.06;;;11.88;100.00
18014;BME280;9132;47.946;10.394;2024-03-02T11:22:46;92868.56;;;11.86;100.00
18014;BME280;9132;47.946;10.394;2024-03-02T11:25:24;92875.22;;;11.89;100.00
18014;BME280;9132;47.946;10.394;2024-03-02T11:27:59;92855.22;;;11.93;100.00
18014;BME280;9132;47.946;10.394;2024-03-02T11:30:48;92867.66;;;11.92;100.00
18014;BME280;9132;47.946;10.394;2024-03-02T11:33:23;92852.47;;;11.88;100.00
18014;BME280;9132;47.946;10.394;2024-03-02T11:35:49;92844.66;;;11.93;100.00
18014;BME280;9132;47.946;10.394;2024-03-02T11:38:17;92848.34;;;11.92;100.00
18014;BME280;9132;47.946;10.394;2024-03-02T11:40:45;92842.22;;;12.03;100.00
18014;BME280;9132;47.946;10.394;2024-03-02T11:43:12;92835.63;;;12.17;100.00
18014;BME280;9132;47.946;10.394;2024-03-02T11:45:42;92831.78;;;12.25;100.00
18014;BME280;9132;47.946;10.394;2024-03-02T11:48:10;92812.84;;;12.16;100.00
18014;BME280;9132;47.946;10.394;2024-03-02T11:50:40;92828.06;;;12.38;100.00
18014;BME280;9132;47.946;10.394;2024-03-02T11:53:08;92818.41;;;12.32;100.00
18014;BME280;9132;47.946;10.394;2024-03-02T11:55:36;92806.91;;;12.38;100.00
18014;BME280;9132;47.946;10.394;2024-03-02T11:58:05;92808.75;;;12.54;100.00
18014;BME280;9132;47.946;10.394;2024-03-02T12:00:31;92799.41;;;12.63;100.00
18014;BME280;9132;47.946;10.394;2024-03-02T12:03:00;92799.34;;;12.75;100.00
18014;BME280;9132;47.946;10.394;2024-03-02T12:05:28;92791.47;;;12.80;100.00
18014;BME280;9132;47.946;10.394;2024-03-02T12:07:56;92790.91;;;12.95;100.00
18014;BME280;9132;47.946;10.394;2024-03-02T12:10:23;92789.44;;;13.04;100.00
18014;BME280;9132;47.946;10.394;2024-03-02T12:12:55;92794.03;;;13.09;99.85
18014;BME280;9132;47.946;10.394;2024-03-02T12:15:25;92790.91;;;13.12;100.00
18014;BME280;9132;47.946;10.394;2024-03-02T12:17:55;92785.75;;;13.22;97.08
18014;BME280;9132;47.946;10.394;2024-03-02T12:20:22;92780.53;;;13.27;98.95
18014;BME280;9132;47.946;10.394;2024-03-02T12:22:50;92785.84;;;13.27;97.42
18014;BME280;9132;47.946;10.394;2024-03-02T12:25:18;92779.72;;;13.43;100.00
18014;BME280;9132;47.946;10.394;2024-03-02T12:27:45;92774.97;;;13.45;97.65
18014;BME280;9132;47.946;10.394;2024-03-02T12:30:12;92764.53;;;13.56;98.02
18014;BME280;9132;47.946;10.394;2024-03-02T12:32:40;92762.31;;;13.70;99.72
18014;BME280;9132;47.946;10.394;2024-03-02T12:35:08;92766.63;;;13.76;97.49
18014;BME280;9132;47.946;10.394;2024-03-02T12:37:42;92756.44;;;13.89;97.81
18014;BME280;9132;47.946;10.394;2024-03-02T12:40:10;92760.19;;;13.94;96.28
18014;BME280;9132;47.946;10.394;2024-03-02T12:42:36;92754.69;;;14.00;98.71
18014;BME280;9132;47.946;10.394;2024-03-02T12:45:03;92758.66;;;13.98;94.91
18014;BME280;9132;47.946;10.394;2024-03-02T12:47:30;92751.66;;;14.13;94.87
18014;BME280;9132;47.946;10.394;2024-03-02T12:49:58;92744.84;;;14.23;94.69
18014;BME280;9132;47.946;10.394;2024-03-02T12:52:25;92737.25;;;14.31;92.00
18014;BME280;9132;47.946;10.394;2024-03-02T12:54:52;92728.22;;;14.32;94.25
18014;BME280;9132;47.946;10.394;2024-03-02T12:57:25;92735.22;;;14.44;93.74
18014;BME280;9132;47.946;10.394;2024-03-02T12:59:52;92729.09;;;14.38;92.28